Airfield :
LOGIN :

Register | Disclaimer

   EN    FR    IT 

 










Legend :    VFR   Marginal VFR   IFR   Intensive IFR   Very Intensive IFR
Visi :
Ceiling :
>= 8 km
>= 3000ft
5 to 8 km
1000 to 3000 ft
1500m to 5 km
500 to 1000 ft
800 to 1500m
200 to 500 ft
< 800m
< 200 ft
Symbols :   Thunderstorms  Fog  Heavy snow  Heavy precipitations  Wind > 20 kt
SIGMETs :     Misc.  Thunderstorms  Icing  Turbulence  Mountain Waves  Volcanic Ashes






- Airport Elevation : 125 ft
- IATA code : MGL


EDLN - Mönchengladbach

CURRENT METAR :
  • 180520Z AUTO 25010KT 200V280 9999 // SCT027/// BKN039/// 07/02 Q1020

EXPIRED METARs :
  • 180450Z AUTO 25008G18KT 220V310 9999 // SCT030/// BKN038/// 07/02 Q1020
  • 180420Z AUTO 25012KT 210V290 9999 // SCT029/// 07/02 Q1020
  • 180350Z AUTO 25011KT 210V280 9999 // FEW025/// BKN046/// 07/03 Q1019
  • 180320Z AUTO 24015G25KT 210V280 9999 // FEW028/// BKN049/// 07/03 Q1019
  • 180250Z AUTO 24014G26KT 210V300 9999 // FEW025/// OVC040/// 08/03 Q1019

Expired Forecast.



MET'MAP, your aeronautical weather chart ! - Copyright ORBIFLY December 2007 - Disclaimer

ORBIFLY MET'MAP TEAM :

Programming & Development : Alexandra Zaïnal
Concept & original design : Baudouin d'Aumeries
Assistance for programming : Marc-Olivier Méhu
Technical & hardware support : Manuel Goepfert

Contact : metmap@orbifly.com




SOURCES & CREDITS :

   NOAA